메인 페이지
METAR-TAF:

METAR-TAF

공항 :

인천국제공항

인천, 대한민국

위도: 37-28N, 경도: 126-27E, 고도: 7m

현재 날씨관측

예보는 38분 전, 12:30시(UTC)에 발표되었습니다.
북북서5kt
온도 2°C
습도 80%
기압 1029 hPa
시정: 8000m

METAR: RKSI 261230Z 33005KT 8000 NSC 02/M01 Q1029 NOSIG

시각: 22:08 (13:08 UTC)

예보

예보는 2 시간 8분 전, 11:00시(UTC)에 발표되었습니다.
예보 대상 시간: 26일 12시부터 27일 18시까지 (UTC)
북북서8kt
시정 10km 이상
1500m 미만 상공 구름 및 적란운 없음
전환 중
26일 14시부터 26일 16시까지 (UTC)
동북동10kt
시정: 6000m
전환 중
27일 01시부터 27일 03시까지 (UTC)
동남동7kt
전환 중
27일 07시부터 27일 09시까지 (UTC)
동북동6kt
전환 중
27일 10시부터 27일 12시까지 (UTC)
고도 4000ft 상공 구름 많음
전환 중
27일 13시부터 27일 15시까지 (UTC)
남동8kt

TAF: RKSI 261100Z 2612/2718 33008KT CAVOK TNM01/2621Z TX09/2705Z BECMG 2614/2616 06010KT 6000 NSC BECMG 2701/2703 12007KT BECMG 2707/2709 06006KT BECMG 2710/2712 BKN040 BECMG 2713/2715 14008KT

4,000개 이상의 공항 관측 자료 및 예보 (METAR 및 TAF 보고).

지도상에서 검색 가능한 기상관측소가 노란 점과 빨간 점으로 표시되어 있습니다.

기상관측소 명을 보려면 표시 위로 마우스를 이동하세요.

날씨 관측과 예보를 보려면 클릭하세요.

지도 변경 : 확대하려면 엑스 표시가 있는 녹색 버튼, 축소하려면 빼기 표시가 있는 녹색 버튼, 다음 페이지의 지도를 보려면 녹색 화살표를 클릭하세요.


METAR-TAF: